createdAt,value
2022-08-16T00:01:41.067Z,5.70
2022-08-16T00:04:09.657Z,5.35
2022-08-16T00:06:39.575Z,6.32
2022-08-16T00:09:07.383Z,6.32
2022-08-16T00:11:39.007Z,6.50
2022-08-16T00:14:08.990Z,5.80
2022-08-16T00:17:01.026Z,5.22
2022-08-16T00:19:28.386Z,5.50
2022-08-16T00:22:13.402Z,6.28
2022-08-16T00:24:46.562Z,5.85
2022-08-16T00:27:14.313Z,5.95
2022-08-16T00:29:41.362Z,5.93
2022-08-16T00:32:08.760Z,5.50
2022-08-16T00:34:44.885Z,5.40
2022-08-16T00:37:24.609Z,6.47
2022-08-16T00:39:57.413Z,6.50
2022-08-16T00:42:29.488Z,6.18
2022-08-16T00:45:06.364Z,5.78
2022-08-16T00:47:34.855Z,6.30
2022-08-16T00:50:05.408Z,7.15
2022-08-16T00:52:38.554Z,6.80
2022-08-16T00:55:12.777Z,6.75
2022-08-16T00:57:59.806Z,7.38
2022-08-16T01:00:29.951Z,6.93
2022-08-16T01:03:01.154Z,7.80
2022-08-16T01:05:29.809Z,6.97
2022-08-16T01:07:57.450Z,8.02
2022-08-16T01:10:31.564Z,7.60
2022-08-16T01:13:04.529Z,6.53
2022-08-16T01:15:34.044Z,8.02
2022-08-16T01:18:02.677Z,7.10
2022-08-16T01:20:34.064Z,7.20
2022-08-16T01:23:17.282Z,8.35
2022-08-16T01:25:59.912Z,6.95
2022-08-16T01:28:38.857Z,6.97
2022-08-16T01:31:14.794Z,7.18
2022-08-16T01:33:44.688Z,7.18
2022-08-16T01:36:12.937Z,7.57
2022-08-16T01:38:47.102Z,6.78
2022-08-16T01:43:53.697Z,6.43
2022-08-16T01:49:10.059Z,8.57
2022-08-16T01:51:39.348Z,8.20
2022-08-16T01:54:07.269Z,8.85
2022-08-16T01:56:35.110Z,8.05
2022-08-16T01:59:04.974Z,8.88
2022-08-16T02:01:32.401Z,9.23
2022-08-16T02:04:10.407Z,8.63
2022-08-16T02:06:45.239Z,8.82
2022-08-16T02:09:14.821Z,8.50
2022-08-16T02:11:52.858Z,10.63
2022-08-16T02:14:26.471Z,10.60
2022-08-16T02:16:56.275Z,9.95
2022-08-16T02:19:24.117Z,10.15
2022-08-16T02:22:34.382Z,9.80
2022-08-16T02:25:01.727Z,11.23
2022-08-16T02:27:28.386Z,10.38
2022-08-16T02:30:04.925Z,11.05
2022-08-16T02:32:50.537Z,10.55
2022-08-16T02:35:19.127Z,9.95
2022-08-16T02:37:52.642Z,10.10
2022-08-16T02:40:22.866Z,10.32
2022-08-16T02:42:51.044Z,9.57
2022-08-16T02:45:20.818Z,9.23
2022-08-16T02:48:00.145Z,9.05
2022-08-16T02:50:55.093Z,9.25
2022-08-16T02:53:18.005Z,8.60
2022-08-16T02:55:45.294Z,8.43
2022-08-16T02:58:17.134Z,9.77
2022-08-16T03:00:45.498Z,9.65
2022-08-16T03:03:17.729Z,10.32
2022-08-16T03:05:45.555Z,9.70
2022-08-16T03:08:50.809Z,10.55
2022-08-16T03:11:16.968Z,11.15
2022-08-16T03:13:51.302Z,10.75
2022-08-16T03:16:38.160Z,11.55
2022-08-16T03:19:07.702Z,10.50
2022-08-16T03:21:37.989Z,11.18
2022-08-16T03:24:28.425Z,9.95
2022-08-16T03:26:57.761Z,9.82
2022-08-16T03:29:29.964Z,11.32
2022-08-16T03:31:59.327Z,10.85
2022-08-16T03:34:27.440Z,11.02
2022-08-16T03:36:54.878Z,10.43
2022-08-16T03:39:22.337Z,11.90
2022-08-16T03:41:59.137Z,11.95
2022-08-16T03:44:44.351Z,11.93
2022-08-16T03:47:12.817Z,13.02
2022-08-16T03:49:47.558Z,12.85
2022-08-16T03:52:20.377Z,14.05
2022-08-16T03:54:53.312Z,13.63
2022-08-16T03:57:23.930Z,14.82
2022-08-16T03:59:59.397Z,15.15
2022-08-16T04:02:31.690Z,15.02
2022-08-16T04:04:58.655Z,14.75
2022-08-16T04:07:25.461Z,16.58
2022-08-16T04:09:52.517Z,15.52
2022-08-16T04:12:53.200Z,17.02
2022-08-16T04:15:09.242Z,16.52
2022-08-16T04:17:37.031Z,16.30
2022-08-16T04:20:31.650Z,17.63
2022-08-16T04:22:56.164Z,18.33
2022-08-16T04:25:23.679Z,17.23
2022-08-16T04:27:54.376Z,17.83
2022-08-16T04:30:32.330Z,16.52
2022-08-16T04:33:02.551Z,17.88
2022-08-16T04:35:34.002Z,17.48
2022-08-16T04:38:10.960Z,17.08
2022-08-16T04:40:48.001Z,16.23
2022-08-16T04:43:17.531Z,17.63
2022-08-16T04:45:44.674Z,17.27
2022-08-16T04:48:11.419Z,17.13
2022-08-16T04:50:49.322Z,15.93
2022-08-16T04:53:16.818Z,17.70
2022-08-16T04:55:45.958Z,17.83
2022-08-16T04:58:43.767Z,17.50
2022-08-16T05:01:00.549Z,17.92
2022-08-16T05:03:27.684Z,19.00
2022-08-16T05:05:59.025Z,17.92
2022-08-16T05:08:30.771Z,17.90
2022-08-16T05:11:01.283Z,17.25
2022-08-16T05:13:41.799Z,17.38
2022-08-16T05:16:19.822Z,17.42
2022-08-16T05:18:48.728Z,18.45
2022-08-16T05:21:15.330Z,19.13
2022-08-16T05:23:51.453Z,20.05
2022-08-16T05:26:24.475Z,19.23
2022-08-16T05:28:55.719Z,18.92
2022-08-16T05:31:29.819Z,19.77
2022-08-16T05:33:59.101Z,20.52
2022-08-16T05:36:34.336Z,21.80
2022-08-16T05:39:09.565Z,20.98
2022-08-16T05:41:45.173Z,20.80
2022-08-16T05:44:23.078Z,21.08
2022-08-16T05:47:00.230Z,19.98
2022-08-16T05:49:39.830Z,20.25
2022-08-16T05:52:11.598Z,22.35
2022-08-16T05:54:47.814Z,22.02
2022-08-16T05:57:25.662Z,21.85
2022-08-16T06:00:05.683Z,21.52
2022-08-16T06:02:35.938Z,20.90
2022-08-16T06:05:03.863Z,21.10
2022-08-16T06:07:32.163Z,21.60
2022-08-16T06:10:00.221Z,20.98
2022-08-16T06:12:29.947Z,20.67
2022-08-16T06:15:01.796Z,21.75
2022-08-16T06:17:41.751Z,21.38
2022-08-16T06:20:14.519Z,21.75
2022-08-16T06:22:47.772Z,21.48
2022-08-16T06:25:36.459Z,20.55
2022-08-16T06:28:08.810Z,22.80
2022-08-16T06:30:36.254Z,21.75
2022-08-16T06:33:12.256Z,20.45
2022-08-16T06:35:40.599Z,19.27
2022-08-16T06:38:31.906Z,20.63
2022-08-16T06:40:56.658Z,21.80
2022-08-16T06:43:27.259Z,22.65
2022-08-16T06:45:54.745Z,19.75
2022-08-16T06:48:32.776Z,21.73
2022-08-16T06:51:01.595Z,20.95
2022-08-16T06:53:29.692Z,21.58
2022-08-16T06:55:58.750Z,20.35
2022-08-16T06:58:31.464Z,21.45
2022-08-16T07:01:00.234Z,20.77
2022-08-16T07:03:32.179Z,18.83
2022-08-16T07:05:59.677Z,21.52
2022-08-16T07:08:27.984Z,19.98
2022-08-16T07:10:56.639Z,21.00
2022-08-16T07:13:57.996Z,20.67
2022-08-16T07:16:15.527Z,20.17
2022-08-16T07:19:01.069Z,18.88
2022-08-16T07:21:45.621Z,20.60
2022-08-16T07:24:29.601Z,19.67
2022-08-16T07:26:57.692Z,21.60
2022-08-16T07:29:24.890Z,20.48
2022-08-16T07:31:53.841Z,21.48
2022-08-16T07:34:21.012Z,21.77
2022-08-16T07:37:06.950Z,21.00
2022-08-16T07:39:33.749Z,19.98
2022-08-16T07:42:01.047Z,21.15
2022-08-16T07:44:28.726Z,21.27
2022-08-16T07:47:15.409Z,20.63
2022-08-16T07:49:53.066Z,19.27
2022-08-16T07:52:25.031Z,20.65
2022-08-16T07:54:57.250Z,21.05
2022-08-16T07:57:24.655Z,22.25
2022-08-16T07:59:51.927Z,20.95
2022-08-16T08:02:20.376Z,21.48
2022-08-16T08:04:48.737Z,19.55
2022-08-16T08:07:16.294Z,19.40
2022-08-16T08:09:44.051Z,20.98
2022-08-16T08:12:32.182Z,20.33
2022-08-16T08:14:59.498Z,20.23
2022-08-16T08:17:43.170Z,19.35
2022-08-16T08:20:26.432Z,21.83
2022-08-16T08:23:00.619Z,20.42
2022-08-16T08:25:52.676Z,20.48
2022-08-16T08:28:18.010Z,17.45
2022-08-16T08:30:51.277Z,20.45
2022-08-16T08:33:28.424Z,20.20
2022-08-16T08:36:00.914Z,18.85
2022-08-16T08:38:43.961Z,20.25
2022-08-16T08:41:12.779Z,20.55
2022-08-16T08:43:41.799Z,19.35
2022-08-16T08:46:17.953Z,19.55
2022-08-16T08:48:58.375Z,19.20
2022-08-16T08:51:35.520Z,19.65
2022-08-16T08:54:06.981Z,19.50
2022-08-16T08:56:37.504Z,18.67
2022-08-16T08:59:19.777Z,19.05
2022-08-16T09:01:57.760Z,20.00
2022-08-16T09:04:26.751Z,19.23
2022-08-16T09:06:54.506Z,19.55
2022-08-16T09:09:23.383Z,18.13
2022-08-16T09:11:53.767Z,16.67
2022-08-16T09:14:31.945Z,17.77
2022-08-16T09:17:03.699Z,17.70
2022-08-16T09:19:40.913Z,17.83
2022-08-16T09:22:20.673Z,15.98
2022-08-16T09:24:53.526Z,16.10
2022-08-16T09:27:23.557Z,14.95
2022-08-16T09:30:00.114Z,14.55
2022-08-16T09:32:30.503Z,14.43
2022-08-16T09:34:58.693Z,14.32
2022-08-16T09:37:29.359Z,14.90
2022-08-16T09:39:59.647Z,14.68
2022-08-16T09:42:28.334Z,13.55
2022-08-16T09:45:10.644Z,14.98
2022-08-16T09:47:56.674Z,15.48
2022-08-16T09:50:37.236Z,14.35
2022-08-16T09:53:15.126Z,14.40
2022-08-16T09:55:49.571Z,13.18
2022-08-16T09:58:41.600Z,14.23
2022-08-16T10:01:06.562Z,16.80
2022-08-16T10:03:35.586Z,13.20
2022-08-16T10:06:02.470Z,13.95
2022-08-16T10:08:29.108Z,14.77
2022-08-16T10:11:15.618Z,13.32
2022-08-16T10:13:51.243Z,12.07
2022-08-16T10:16:21.740Z,14.63
2022-08-16T10:19:01.804Z,14.07
2022-08-16T10:21:34.008Z,12.60
2022-08-16T10:24:03.655Z,13.75
2022-08-16T10:27:19.648Z,16.63
2022-08-16T10:29:19.912Z,15.45
2022-08-16T10:31:53.575Z,14.35
2022-08-16T10:34:30.917Z,14.60
2022-08-16T10:37:00.586Z,15.00
2022-08-16T10:39:32.852Z,15.05
2022-08-16T10:42:08.529Z,15.98
2022-08-16T10:44:35.311Z,15.82
2022-08-16T10:47:02.389Z,14.85
2022-08-16T10:49:29.351Z,15.07
2022-08-16T10:52:01.551Z,15.43
2022-08-16T10:54:59.201Z,14.73
2022-08-16T10:57:32.894Z,14.65
2022-08-16T11:00:01.355Z,15.73
2022-08-16T11:02:59.982Z,16.27
2022-08-16T11:05:17.527Z,14.82
2022-08-16T11:07:53.484Z,15.70
2022-08-16T11:13:57.399Z,15.45
2022-08-16T11:16:01.221Z,14.93
2022-08-16T11:19:03.784Z,15.73
2022-08-16T11:21:28.526Z,15.98
2022-08-16T11:23:58.035Z,14.88
2022-08-16T11:26:25.674Z,15.18
2022-08-16T11:31:40.248Z,15.98
2022-08-16T11:34:13.930Z,14.43
2022-08-16T11:36:53.719Z,16.23
2022-08-16T11:39:27.274Z,17.23
2022-08-16T11:41:56.135Z,14.75
2022-08-16T11:44:51.981Z,14.65
2022-08-16T11:47:11.337Z,14.80
2022-08-16T11:49:37.942Z,14.55
2022-08-16T11:52:05.232Z,16.08
2022-08-16T11:54:35.735Z,15.30
2022-08-16T11:57:03.476Z,15.30
2022-08-16T11:59:36.528Z,16.40
2022-08-16T12:02:30.899Z,14.27
2022-08-16T12:04:55.350Z,14.25
2022-08-16T12:07:23.832Z,14.13
2022-08-16T12:09:53.086Z,13.57
2022-08-16T12:14:46.995Z,14.60
2022-08-16T12:17:14.360Z,14.50
2022-08-16T12:19:41.652Z,13.93
2022-08-16T12:22:19.893Z,16.27
2022-08-16T12:24:52.067Z,15.85
2022-08-16T12:27:23.058Z,13.90
2022-08-16T12:29:52.688Z,16.58
2022-08-16T12:32:38.257Z,15.23
2022-08-16T12:35:10.116Z,14.50
2022-08-16T12:37:36.932Z,14.43
2022-08-16T12:40:22.453Z,13.45
2022-08-16T12:42:54.106Z,14.18
2022-08-16T12:45:22.618Z,15.27
2022-08-16T12:48:32.578Z,15.63
2022-08-16T12:50:58.134Z,14.25
2022-08-16T12:53:31.921Z,12.45
2022-08-16T12:56:00.030Z,11.82
2022-08-16T12:58:49.604Z,12.43
2022-08-16T13:01:14.363Z,12.02
2022-08-16T13:03:41.616Z,11.10
2022-08-16T13:06:08.859Z,9.50
2022-08-16T13:08:36.311Z,10.95
2022-08-16T13:11:04.679Z,11.85
2022-08-16T13:13:35.989Z,8.65
2022-08-16T13:16:15.245Z,10.98
2022-08-16T13:18:52.330Z,9.45
2022-08-16T13:21:23.344Z,9.60
2022-08-16T13:23:51.039Z,8.43
2022-08-16T13:26:20.340Z,9.88
2022-08-16T13:28:47.726Z,9.25
2022-08-16T13:31:16.009Z,10.02
2022-08-16T13:33:46.657Z,8.95
2022-08-16T13:36:38.833Z,8.48
2022-08-16T13:39:01.518Z,8.13
2022-08-16T13:41:30.158Z,8.85
2022-08-16T13:43:59.356Z,9.00
2022-08-16T13:46:27.621Z,9.02
2022-08-16T13:48:56.239Z,9.93
2022-08-16T13:51:29.247Z,9.00
2022-08-16T13:54:02.679Z,8.90
2022-08-16T13:56:37.906Z,8.50
2022-08-16T13:59:16.597Z,8.45
2022-08-16T14:01:55.695Z,8.93
2022-08-16T14:06:55.241Z,9.55
2022-08-16T14:09:23.726Z,8.27
2022-08-16T14:11:53.329Z,9.10
2022-08-16T14:14:28.382Z,8.77
2022-08-16T14:19:23.088Z,9.13
2022-08-16T14:21:56.668Z,9.98
2022-08-16T14:24:37.089Z,8.10
2022-08-16T14:27:04.816Z,8.80
2022-08-16T14:29:35.141Z,9.13
2022-08-16T14:32:06.984Z,8.25
2022-08-16T14:34:33.623Z,7.78
2022-08-16T14:37:00.702Z,8.15
2022-08-16T14:39:27.353Z,8.07
2022-08-16T14:41:55.831Z,8.05
2022-08-16T14:44:23.572Z,8.27
2022-08-16T14:46:50.190Z,7.40
2022-08-16T14:51:46.404Z,7.90
2022-08-16T14:54:15.101Z,8.73
2022-08-16T14:59:13.498Z,8.57
2022-08-16T15:01:58.062Z,7.78
2022-08-16T15:04:39.244Z,7.95
2022-08-16T15:07:12.474Z,7.95
2022-08-16T15:09:44.213Z,8.05
2022-08-16T15:12:33.472Z,6.80
2022-08-16T15:17:54.535Z,2.70
2022-08-16T15:20:29.134Z,3.10
2022-08-16T15:22:58.937Z,3.80
2022-08-16T15:25:30.669Z,3.90
2022-08-16T15:28:02.377Z,4.00
2022-08-16T15:30:44.775Z,4.05
2022-08-16T15:33:20.711Z,4.65
2022-08-16T15:35:50.149Z,4.25
2022-08-16T15:38:56.943Z,4.25
2022-08-16T15:41:04.871Z,4.53
2022-08-16T15:43:33.734Z,4.97
2022-08-16T15:46:35.839Z,5.40
2022-08-16T15:49:14.054Z,5.57
2022-08-16T15:51:43.629Z,5.70
2022-08-16T15:54:21.051Z,5.63
2022-08-16T15:57:01.555Z,5.90
2022-08-16T15:59:34.817Z,6.07
2022-08-16T16:02:20.571Z,5.95
2022-08-16T16:04:55.291Z,6.78
2022-08-16T16:07:22.121Z,6.20
2022-08-16T16:09:49.812Z,6.80
2022-08-16T16:12:50.373Z,6.15
2022-08-16T16:15:07.356Z,5.38
2022-08-16T16:17:34.308Z,5.70
2022-08-16T16:20:04.393Z,6.00
2022-08-16T16:22:32.030Z,5.85
2022-08-16T16:24:58.965Z,4.63
2022-08-16T16:27:25.593Z,6.03
2022-08-16T16:29:57.987Z,4.90
2022-08-16T16:35:02.383Z,3.63
2022-08-16T16:37:31.142Z,3.90
2022-08-16T16:39:58.840Z,3.08
2022-08-16T16:42:29.981Z,3.00
2022-08-16T16:45:01.510Z,2.80
2022-08-16T16:47:30.144Z,2.92
2022-08-16T16:50:09.234Z,2.53
2022-08-16T16:52:44.661Z,2.72
2022-08-16T16:55:14.664Z,3.10
2022-08-16T16:58:03.211Z,4.18
2022-08-16T17:00:37.910Z,4.78
2022-08-16T17:03:17.214Z,7.55
2022-08-16T17:05:51.044Z,7.60
2022-08-16T17:08:25.646Z,6.45
2022-08-16T17:10:54.066Z,5.18
2022-08-16T17:13:23.846Z,5.10
2022-08-16T17:15:52.844Z,5.07
2022-08-16T17:19:14.457Z,5.25
2022-08-16T17:21:08.406Z,4.85
2022-08-16T17:23:58.511Z,5.80
2022-08-16T17:26:30.270Z,5.65
2022-08-16T17:29:02.594Z,5.40
2022-08-16T17:31:43.778Z,4.47
2022-08-16T17:34:28.870Z,5.40
2022-08-16T17:36:58.890Z,4.95
2022-08-16T17:39:29.496Z,5.78
2022-08-16T17:41:58.194Z,4.95
2022-08-16T17:44:25.366Z,4.97
2022-08-16T17:46:53.107Z,5.65
2022-08-16T17:49:21.244Z,4.47
2022-08-16T17:51:48.537Z,5.45
2022-08-16T17:54:20.365Z,6.28
2022-08-16T17:57:00.564Z,6.68
2022-08-16T17:59:28.917Z,6.93
2022-08-16T18:01:56.203Z,7.78
2022-08-16T18:04:48.468Z,7.57
2022-08-16T18:07:10.252Z,8.23
2022-08-16T18:09:37.029Z,7.90
2022-08-16T18:12:50.733Z,8.32
2022-08-16T18:15:08.518Z,8.02
2022-08-16T18:17:35.111Z,8.43
2022-08-16T18:20:02.235Z,8.90
2022-08-16T18:22:32.301Z,8.27
2022-08-16T18:24:59.694Z,8.88
2022-08-16T18:27:29.705Z,10.00
2022-08-16T18:29:56.329Z,9.55
2022-08-16T18:32:24.735Z,9.25
2022-08-16T18:34:54.361Z,9.73
2022-08-16T18:37:23.252Z,10.20
2022-08-16T18:39:50.208Z,10.30
2022-08-16T18:42:16.866Z,9.25
2022-08-16T18:44:44.358Z,9.45
2022-08-16T18:47:11.544Z,10.13
2022-08-16T18:49:38.306Z,10.77
2022-08-16T18:52:05.068Z,9.45
2022-08-16T18:54:33.462Z,10.25
2022-08-16T18:57:03.478Z,9.80
2022-08-16T18:59:34.024Z,7.97
2022-08-16T19:02:04.982Z,10.45
2022-08-16T19:04:55.213Z,10.13
2022-08-16T19:07:21.442Z,10.20
2022-08-16T19:09:48.083Z,10.07
2022-08-16T19:12:15.901Z,9.77
2022-08-16T19:14:44.238Z,9.95
2022-08-16T19:17:11.723Z,9.80
2022-08-16T19:19:38.355Z,8.20
2022-08-16T19:22:06.250Z,8.45
2022-08-16T19:24:32.840Z,9.10
2022-08-16T19:26:59.458Z,8.50
2022-08-16T19:29:28.579Z,8.90
2022-08-16T19:31:55.227Z,9.52
2022-08-16T19:34:21.932Z,7.82
2022-08-16T19:36:48.731Z,8.20
2022-08-16T19:39:16.502Z,8.10
2022-08-16T19:41:46.076Z,8.13
2022-08-16T19:44:13.514Z,9.07
2022-08-16T19:46:44.838Z,7.60
2022-08-16T19:49:16.200Z,8.82
2022-08-16T19:51:44.447Z,9.82
2022-08-16T19:54:11.058Z,8.43
2022-08-16T19:56:37.985Z,8.85
2022-08-16T19:59:21.934Z,7.50
2022-08-16T20:01:52.044Z,8.82
2022-08-16T20:04:19.527Z,8.70
2022-08-16T20:06:47.184Z,9.20
2022-08-16T20:09:15.855Z,9.35
2022-08-16T20:11:45.054Z,9.93
2022-08-16T20:14:24.243Z,9.23
2022-08-16T20:16:52.284Z,9.43
2022-08-16T20:19:19.389Z,9.88
2022-08-16T20:21:46.253Z,10.32
2022-08-16T20:24:32.924Z,9.90
2022-08-16T20:27:00.023Z,10.85
2022-08-16T20:29:28.188Z,9.63
2022-08-16T20:31:56.426Z,10.57
2022-08-16T20:34:23.534Z,9.90
2022-08-16T20:36:50.168Z,9.25
2022-08-16T20:39:17.212Z,10.90
2022-08-16T20:41:44.627Z,9.95
2022-08-16T20:44:12.711Z,11.18
2022-08-16T20:46:40.036Z,10.60
2022-08-16T20:49:08.987Z,9.85
2022-08-16T20:51:47.040Z,9.93
2022-08-16T20:54:18.068Z,9.95
2022-08-16T20:56:44.709Z,9.13
2022-08-16T20:59:11.293Z,9.40
2022-08-16T21:01:46.494Z,9.70
2022-08-16T21:04:19.385Z,9.35
2022-08-16T21:06:53.734Z,9.05
2022-08-16T21:09:24.163Z,9.13
2022-08-16T21:11:53.041Z,9.23
2022-08-16T21:14:19.686Z,9.52
2022-08-16T21:16:46.393Z,10.02
2022-08-16T21:19:13.272Z,9.63
2022-08-16T21:21:39.882Z,9.70
2022-08-16T21:24:06.595Z,10.30
2022-08-16T21:26:34.926Z,10.85
2022-08-16T21:29:07.732Z,8.88
2022-08-16T21:31:38.234Z,9.75
2022-08-16T21:34:04.848Z,11.02
2022-08-16T21:36:34.964Z,10.13
2022-08-16T21:39:04.818Z,9.93
2022-08-16T21:41:31.986Z,10.55
2022-08-16T21:43:58.584Z,10.35
2022-08-16T21:46:25.173Z,10.13
2022-08-16T21:48:51.799Z,11.50
2022-08-16T21:51:18.495Z,10.40
2022-08-16T21:53:45.152Z,9.85
2022-08-16T21:56:12.721Z,12.68
2022-08-16T21:58:46.241Z,10.18
2022-08-16T22:01:13.389Z,10.55
2022-08-16T22:03:40.012Z,12.38
2022-08-16T22:06:14.060Z,10.48
2022-08-16T22:08:46.717Z,11.73
2022-08-16T22:13:56.471Z,10.27
2022-08-16T22:16:27.287Z,11.80
2022-08-16T22:18:53.937Z,12.00
2022-08-16T22:21:20.860Z,13.63
2022-08-16T22:23:56.667Z,11.70
2022-08-16T22:26:29.902Z,13.18
2022-08-16T22:29:02.555Z,13.32
2022-08-16T22:31:29.226Z,12.20
2022-08-16T22:33:56.786Z,11.98
2022-08-16T22:36:23.778Z,12.40
2022-08-16T22:38:58.239Z,12.07
2022-08-16T22:41:27.571Z,13.30
2022-08-16T22:43:54.239Z,13.75
2022-08-16T22:46:21.048Z,10.82
2022-08-16T22:48:50.442Z,12.55
2022-08-16T22:51:18.932Z,12.02
2022-08-16T22:53:45.846Z,11.57
2022-08-16T22:56:12.866Z,11.93
2022-08-16T22:58:39.664Z,11.35
2022-08-16T23:01:08.258Z,11.35
2022-08-16T23:03:35.912Z,10.55
2022-08-16T23:06:03.990Z,10.88
2022-08-16T23:08:39.984Z,10.00
2022-08-16T23:11:10.146Z,10.73
2022-08-16T23:13:36.912Z,10.95
2022-08-16T23:16:10.654Z,10.52
2022-08-16T23:18:37.628Z,10.07
2022-08-16T23:21:08.499Z,10.77
2022-08-16T23:23:35.844Z,12.13
2022-08-16T23:26:45.298Z,11.00
2022-08-16T23:28:50.155Z,10.65
2022-08-16T23:31:18.523Z,9.98
2022-08-16T23:33:45.963Z,9.70
2022-08-16T23:36:13.049Z,9.88
2022-08-16T23:38:40.151Z,7.45
2022-08-16T23:41:13.443Z,8.35
2022-08-16T23:43:43.238Z,8.32
2022-08-16T23:46:18.190Z,6.45
2022-08-16T23:49:56.292Z,7.28
2022-08-16T23:51:32.445Z,6.88
2022-08-16T23:54:00.044Z,6.55
2022-08-16T23:56:26.731Z,5.97
2022-08-16T23:59:02.674Z,5.00
